Time,TemperatureF,DewpointF,PressureIn,WindDirection,WindDirectionDegrees,WindSpeedMPH,WindSpeedGustMPH,Humidity,HourlyPrecipIn,Conditions,Clouds,dailyrainin,SolarRadiationWatts/m^2,SoftwareType,DateUTC
2013-11-15 00:00:00,47.8,43.8,30.09,ESE,117,0.0,0.0,86,0.00,,,0.00,0,Wunderground v.1.15,2013-11-15 06:00:00,
2013-11-15 00:10:00,48.0,44.3,30.08,ESE,114,0.0,0.0,87,0.00,,,0.00,0,Wunderground v.1.15,2013-11-15 06:10:00,
2013-11-15 00:14:00,48.1,44.4,30.08,ESE,115,0.0,0.0,87,0.00,,,0.00,0,Wunderground v.1.15,2013-11-15 06:14:00,
2013-11-15 00:20:00,48.2,44.5,30.08,ESE,114,0.0,0.0,87,0.00,,,0.00,0,Wunderground v.1.15,2013-11-15 06:20:00,
2013-11-15 00:25:00,48.4,44.7,30.08,ESE,107,0.0,0.0,87,0.00,,,0.00,0,Wunderground v.1.15,2013-11-15 06:25:00,
2013-11-15 00:30:00,48.6,44.9,30.08,ESE,106,0.0,0.0,87,0.00,,,0.00,0,Wunderground v.1.15,2013-11-15 06:30:00,
2013-11-15 00:40:00,48.7,45.0,30.08,ESE,106,0.0,0.0,87,0.00,,,0.00,0,Wunderground v.1.15,2013-11-15 06:40:00,
2013-11-15 00:45:00,48.7,45.0,30.07,ESE,106,0.0,1.0,87,0.00,,,0.00,0,Wunderground v.1.15,2013-11-15 06:45:00,
2013-11-15 00:50:00,48.6,44.9,30.07,ESE,106,0.0,0.0,87,0.00,,,0.00,0,Wunderground v.1.15,2013-11-15 06:50:00,
2013-11-15 00:55:00,48.6,44.9,30.08,ESE,106,0.0,0.0,87,0.00,,,0.00,0,Wunderground v.1.15,2013-11-15 06:55:00,
2013-11-15 01:05:00,48.4,45.0,30.07,ESE,106,0.0,0.0,88,0.00,,,0.00,0,Wunderground v.1.15,2013-11-15 07:05:00,
2013-11-15 01:15:00,48.2,46.0,30.06,ESE,106,0.0,0.0,92,0.00,,,0.00,0,Wunderground v.1.15,2013-11-15 07:15:00,
2013-11-15 01:20:00,48.2,44.8,30.06,ESE,106,0.0,0.0,88,0.00,,,0.00,0,Wunderground v.1.15,2013-11-15 07:20:00,
2013-11-15 01:25:00,48.2,45.1,30.06,ESE,106,0.0,0.0,89,0.00,,,0.00,0,Wunderground v.1.15,2013-11-15 07:25:00,
2013-11-15 01:35:00,48.3,44.9,30.07,ESE,106,0.0,0.0,88,0.00,,,0.00,0,Wunderground v.1.15,2013-11-15 07:35:00,
2013-11-15 01:45:00,48.3,44.9,30.07,ESE,106,0.0,0.0,88,0.00,,,0.00,0,Wunderground v.1.15,2013-11-15 07:45:00,
2013-11-15 01:50:00,48.2,45.1,30.07,ESE,106,0.0,0.0,89,0.00,,,0.00,0,Wunderground v.1.15,2013-11-15 07:50:00,
2013-11-15 01:55:00,48.0,45.2,30.07,ESE,106,0.0,0.0,90,0.00,,,0.00,0,Wunderground v.1.15,2013-11-15 07:55:00,
2013-11-15 02:00:00,47.8,45.0,30.06,ESE,106,0.0,0.0,90,0.00,,,0.00,0,Wunderground v.1.15,2013-11-15 08:00:00,
2013-11-15 02:09:00,47.6,44.8,30.06,ESE,106,0.0,0.0,90,0.00,,,0.00,0,Wunderground v.1.15,2013-11-15 08:09:00,
2013-11-15 02:15:00,47.6,45.1,30.06,ESE,106,0.0,0.0,91,0.00,,,0.00,0,Wunderground v.1.15,2013-11-15 08:15:00,
2013-11-15 02:20:00,47.8,45.3,30.05,ENE,63,0.0,0.0,91,0.00,,,0.00,0,Wunderground v.1.15,2013-11-15 08:20:00,
2013-11-15 02:25:00,47.9,45.1,30.05,ENE,63,0.0,0.0,90,0.00,,,0.00,0,Wunderground v.1.15,2013-11-15 08:25:00,
2013-11-15 02:30:00,48.1,45.3,30.06,ENE,63,0.0,0.0,90,0.00,,,0.00,0,Wunderground v.1.15,2013-11-15 08:30:00,
2013-11-15 02:40:00,48.2,45.4,30.06,ENE,78,0.0,0.0,90,0.00,,,0.00,0,Wunderground v.1.15,2013-11-15 08:40:00,
2013-11-15 02:45:00,48.2,45.4,30.06,ENE,78,0.0,0.0,90,0.00,,,0.00,0,Wunderground v.1.15,2013-11-15 08:45:00,
2013-11-15 02:50:00,48.3,45.5,30.06,ENE,78,0.0,0.0,90,0.00,,,0.00,0,Wunderground v.1.15,2013-11-15 08:50:00,
2013-11-15 02:55:00,48.3,45.5,30.06,ENE,78,0.0,0.0,90,0.00,,,0.00,0,Wunderground v.1.15,2013-11-15 08:55:00,
2013-11-15 03:05:00,48.6,45.8,30.05,ENE,78,0.0,0.0,90,0.00,,,0.00,0,Wunderground v.1.15,2013-11-15 09:05:00,
2013-11-15 03:10:00,48.9,45.8,30.04,East,100,0.0,0.0,89,0.00,,,0.00,0,Wunderground v.1.15,2013-11-15 09:10:00,
2013-11-15 03:20:00,49.5,46.1,30.03,East,92,1.0,2.0,88,0.00,,,0.00,0,Wunderground v.1.15,2013-11-15 09:20:00,
2013-11-15 03:25:00,49.6,45.9,30.03,East,86,1.0,2.0,87,0.00,,,0.00,0,Wunderground v.1.15,2013-11-15 09:25:00,
2013-11-15 03:30:00,49.7,46.0,30.03,East,79,1.0,1.0,87,0.00,,,0.00,0,Wunderground v.1.15,2013-11-15 09:30:00,
2013-11-15 03:40:00,49.6,45.9,30.03,ESE,103,0.0,0.0,87,0.00,,,0.00,0,Wunderground v.1.15,2013-11-15 09:40:00,
2013-11-15 03:45:00,49.7,46.0,30.02,ESE,103,0.0,0.0,87,0.00,,,0.00,0,Wunderground v.1.15,2013-11-15 09:45:00,
2013-11-15 03:55:00,49.7,46.3,30.03,ESE,103,0.0,0.0,88,0.00,,,0.00,0,Wunderground v.1.15,2013-11-15 09:55:00,
2013-11-15 04:05:00,49.8,46.4,30.03,ESE,103,0.0,0.0,88,0.00,,,0.00,0,Wunderground v.1.15,2013-11-15 10:05:00,
2013-11-15 04:10:00,49.8,46.4,30.03,ESE,103,0.0,0.0,88,0.00,,,0.00,0,Wunderground v.1.15,2013-11-15 10:10:00,
2013-11-15 04:15:00,49.8,46.4,30.03,ESE,103,0.0,0.0,88,0.00,,,0.00,0,Wunderground v.1.15,2013-11-15 10:15:00,
2013-11-15 04:25:00,49.9,46.8,30.03,ESE,103,0.0,0.0,89,0.00,,,0.00,0,Wunderground v.1.15,2013-11-15 10:25:00,
2013-11-15 06:00:00,51.2,48.4,30.03,East,90,0.0,0.0,90,0.00,,,0.00,0,Wunderground v.1.15,2013-11-15 12:00:00,
2013-11-15 06:05:00,51.2,48.4,30.03,East,90,0.0,0.0,90,0.00,,,0.00,0,Wunderground v.1.15,2013-11-15 12:05:00,
2013-11-15 06:15:00,51.3,48.5,30.03,East,94,0.0,0.0,90,0.00,,,0.00,0,Wunderground v.1.15,2013-11-15 12:15:00,
2013-11-15 06:25:00,51.4,48.9,30.02,ESE,106,1.0,1.0,91,0.00,,,0.00,0,Wunderground v.1.15,2013-11-15 12:25:00,
2013-11-15 06:30:00,51.4,48.9,30.02,ESE,106,1.0,1.0,91,0.00,,,0.00,0,Wunderground v.1.15,2013-11-15 12:30:00,
2013-11-15 06:35:00,51.4,48.9,30.02,ESE,113,0.0,1.0,91,0.00,,,0.00,0,Wunderground v.1.15,2013-11-15 12:35:00,
2013-11-15 06:40:00,51.4,48.9,30.02,ESE,113,0.0,0.0,91,0.00,,,0.00,0,Wunderground v.1.15,2013-11-15 12:40:00,
2013-11-15 06:49:00,51.5,49.0,30.03,ESE,113,0.0,0.0,91,0.00,,,0.00,5,Wunderground v.1.15,2013-11-15 12:49:00,
2013-11-15 06:54:00,51.5,49.0,30.03,ESE,111,0.0,0.0,91,0.00,,,0.00,12,Wunderground v.1.15,2013-11-15 12:54:00,
2013-11-15 06:59:00,51.5,49.0,30.03,ESE,115,0.0,0.0,91,0.00,,,0.00,14,Wunderground v.1.15,2013-11-15 12:59:00,
2013-11-15 07:05:00,51.5,49.0,30.04,ESE,115,0.0,0.0,91,0.00,,,0.00,19,Wunderground v.1.15,2013-11-15 13:05:00,
2013-11-15 07:10:00,51.5,49.0,30.04,ESE,115,0.0,0.0,91,0.00,,,0.00,23,Wunderground v.1.15,2013-11-15 13:10:00,
2013-11-15 07:15:00,51.6,49.1,30.04,ESE,115,0.0,0.0,91,0.00,,,0.00,33,Wunderground v.1.15,2013-11-15 13:15:00,
2013-11-15 07:25:00,51.8,49.3,30.04,ESE,109,0.0,0.0,91,0.00,,,0.00,42,Wunderground v.1.15,2013-11-15 13:25:00,
2013-11-15 07:30:00,52.0,49.5,30.04,ESE,109,0.0,0.0,91,0.00,,,0.00,44,Wunderground v.1.15,2013-11-15 13:30:00,
2013-11-15 07:35:00,52.3,49.8,30.04,East,88,0.0,0.0,91,0.00,,,0.00,62,Wunderground v.1.15,2013-11-15 13:35:00,
2013-11-15 07:40:00,52.5,49.9,30.04,East,94,1.0,1.0,91,0.00,,,0.00,54,Wunderground v.1.15,2013-11-15 13:40:00,
2013-11-15 07:50:00,52.8,50.2,30.04,East,84,0.0,2.0,91,0.00,,,0.00,56,Wunderground v.1.15,2013-11-15 13:50:00,
2013-11-15 08:00:00,53.1,50.5,30.04,East,99,1.0,2.0,91,0.00,,,0.00,53,Wunderground v.1.15,2013-11-15 14:00:00,
2013-11-15 08:05:00,53.3,50.7,30.04,ENE,76,1.0,2.0,91,0.00,,,0.00,63,Wunderground v.1.15,2013-11-15 14:05:00,
2013-11-15 08:14:00,53.5,50.9,30.05,East,79,0.0,1.0,91,0.00,,,0.00,62,Wunderground v.1.15,2013-11-15 14:14:00,
2013-11-15 08:20:00,53.6,51.0,30.05,East,79,0.0,0.0,91,0.00,,,0.00,53,Wunderground v.1.15,2013-11-15 14:20:00,
2013-11-15 08:25:00,53.7,51.1,30.05,East,87,0.0,2.0,91,0.00,,,0.00,44,Wunderground v.1.15,2013-11-15 14:25:00,
2013-11-15 08:35:00,54.1,51.5,30.05,East,82,0.0,1.0,91,0.00,,,0.00,111,Wunderground v.1.15,2013-11-15 14:35:00,
2013-11-15 08:40:00,54.3,51.7,30.05,SE,138,0.0,0.0,91,0.00,,,0.00,91,Wunderground v.1.15,2013-11-15 14:40:00,
2013-11-15 08:50:00,55.0,52.4,30.06,ESE,103,1.0,1.0,91,0.00,,,0.00,158,Wunderground v.1.15,2013-11-15 14:50:00,
2013-11-15 08:55:00,55.5,52.9,30.06,ESE,107,1.0,1.0,91,0.00,,,0.00,206,Wunderground v.1.15,2013-11-15 14:55:00,
2013-11-15 09:00:00,56.1,53.2,30.06,ESE,106,0.0,1.0,90,0.00,,,0.00,204,Wunderground v.1.15,2013-11-15 15:00:00,
2013-11-15 09:10:00,57.5,54.3,30.06,East,90,1.0,1.0,89,0.00,,,0.00,229,Wunderground v.1.15,2013-11-15 15:10:00,
2013-11-15 09:20:00,58.7,55.2,30.05,SE,127,0.0,2.0,88,0.00,,,0.00,274,Wunderground v.1.15,2013-11-15 15:20:00,
2013-11-15 09:25:00,59.5,55.9,30.06,SE,144,1.0,2.0,88,0.00,,,0.00,506,Wunderground v.1.15,2013-11-15 15:25:00,
2013-11-15 09:30:00,60.5,56.6,30.06,East,84,1.0,2.0,87,0.00,,,0.00,506,Wunderground v.1.15,2013-11-15 15:30:00,
2013-11-15 09:40:00,62.5,58.3,30.05,East,101,1.0,1.0,86,0.00,,,0.00,461,Wunderground v.1.15,2013-11-15 15:40:00,
2013-11-15 09:50:00,64.1,58.8,30.05,SSE,153,1.0,1.0,83,0.00,,,0.00,489,Wunderground v.1.15,2013-11-15 15:50:00,
2013-11-15 09:55:00,64.6,59.3,30.05,SSE,159,1.0,1.0,83,0.00,,,0.00,497,Wunderground v.1.15,2013-11-15 15:55:00,
2013-11-15 10:00:00,64.8,59.2,30.05,East,95,1.0,1.0,82,0.00,,,0.00,504,Wunderground v.1.15,2013-11-15 16:00:00,
2013-11-15 10:09:00,65.9,60.2,30.05,SSE,151,0.0,1.0,82,0.00,,,0.00,186,Wunderground v.1.15,2013-11-15 16:09:00,
2013-11-15 10:14:00,66.5,60.1,30.05,ESE,111,1.0,1.0,80,0.00,,,0.00,165,Wunderground v.1.15,2013-11-15 16:14:00,
2013-11-15 10:20:00,66.6,60.2,30.05,East,86,1.0,1.0,80,0.00,,,0.00,137,Wunderground v.1.15,2013-11-15 16:20:00,
2013-11-15 10:25:00,66.7,61.0,30.04,ESE,123,1.0,1.0,82,0.00,,,0.00,141,Wunderground v.1.15,2013-11-15 16:25:00,
2013-11-15 10:30:00,67.0,61.0,30.04,East,90,1.0,1.0,81,0.00,,,0.00,262,Wunderground v.1.15,2013-11-15 16:30:00,
2013-11-15 10:39:00,68.0,61.6,30.03,East,84,0.0,0.0,80,0.00,,,0.00,563,Wunderground v.1.15,2013-11-15 16:39:00,
2013-11-15 10:44:00,68.4,62.0,30.03,SE,140,1.0,1.0,80,0.00,,,0.00,571,Wunderground v.1.15,2013-11-15 16:44:00,
2013-11-15 10:50:00,68.9,62.1,30.02,East,88,1.0,1.0,79,0.00,,,0.00,169,Wunderground v.1.15,2013-11-15 16:50:00,
2013-11-15 11:00:00,69.6,62.1,30.02,ENE,57,1.0,1.0,77,0.00,,,0.00,251,Wunderground v.1.15,2013-11-15 17:00:00,
2013-11-15 11:09:00,70.2,63.0,30.02,East,91,1.0,1.0,78,0.00,,,0.00,262,Wunderground v.1.15,2013-11-15 17:09:00,
2013-11-15 11:14:00,70.6,63.0,30.01,South,181,2.0,2.0,77,0.00,,,0.00,98,Wunderground v.1.15,2013-11-15 17:14:00,
2013-11-15 11:20:00,71.1,63.1,30.01,South,178,1.0,3.0,76,0.00,,,0.00,302,Wunderground v.1.15,2013-11-15 17:20:00,
2013-11-15 11:25:00,71.6,63.6,30.01,SSE,148,1.0,3.0,76,0.00,,,0.00,192,Wunderground v.1.15,2013-11-15 17:25:00,
2013-11-15 11:34:00,71.5,63.5,30.00,SSE,153,1.0,1.0,76,0.00,,,0.00,617,Wunderground v.1.15,2013-11-15 17:34:00,
2013-11-15 11:39:00,72.1,63.7,30.00,SW,216,2.0,2.0,75,0.00,,,0.00,619,Wunderground v.1.15,2013-11-15 17:39:00,
2013-11-15 11:45:00,72.7,64.7,30.00,South,180,2.0,2.0,76,0.00,,,0.00,622,Wunderground v.1.15,2013-11-15 17:45:00,
2013-11-15 11:50:00,73.1,64.3,30.00,SSE,162,1.0,3.0,74,0.00,,,0.00,626,Wunderground v.1.15,2013-11-15 17:50:00,
2013-11-15 11:55:00,73.1,63.9,29.99,SSE,158,1.0,3.0,73,0.00,,,0.00,628,Wunderground v.1.15,2013-11-15 17:55:00,
2013-11-15 12:04:00,73.6,64.0,29.98,SSW,193,1.0,1.0,72,0.00,,,0.00,631,Wunderground v.1.15,2013-11-15 18:04:00,
2013-11-15 12:09:00,74.1,64.9,29.99,SSW,211,2.0,2.0,73,0.00,,,0.00,626,Wunderground v.1.15,2013-11-15 18:09:00,
2013-11-15 12:15:00,74.7,64.7,29.98,SSE,164,2.0,2.0,71,0.00,,,0.00,633,Wunderground v.1.15,2013-11-15 18:15:00,
2013-11-15 12:20:00,74.9,64.5,29.98,SW,214,2.0,2.0,70,0.00,,,0.00,631,Wunderground v.1.15,2013-11-15 18:20:00,
2013-11-15 12:29:00,75.8,64.9,29.97,SSW,202,2.0,2.0,69,0.00,,,0.00,638,Wunderground v.1.15,2013-11-15 18:29:00,
2013-11-15 12:35:00,76.2,65.3,29.97,West,279,2.0,2.0,69,0.00,,,0.00,638,Wunderground v.1.15,2013-11-15 18:35:00,
2013-11-15 12:45:00,76.3,65.0,29.96,SSW,207,0.0,1.0,68,0.00,,,0.00,295,Wunderground v.1.15,2013-11-15 18:45:00,
2013-11-15 12:54:00,76.1,65.6,29.96,SSE,148,1.0,1.0,70,0.00,,,0.00,664,Wunderground v.1.15,2013-11-15 18:54:00,
2013-11-15 12:59:00,76.4,64.2,29.96,WSW,239,1.0,2.0,66,0.00,,,0.00,659,Wunderground v.1.15,2013-11-15 18:59:00,
2013-11-15 13:05:00,76.3,64.1,29.95,WSW,240,1.0,2.0,66,0.00,,,0.00,158,Wunderground v.1.15,2013-11-15 19:05:00,
2013-11-15 13:10:00,76.0,64.2,29.95,WSW,247,1.0,1.0,67,0.00,,,0.00,213,Wunderground v.1.15,2013-11-15 19:10:00,
2013-11-15 13:19:00,76.0,64.2,29.94,WSW,247,1.0,1.0,67,0.00,,,0.00,675,Wunderground v.1.15,2013-11-15 19:19:00,
2013-11-15 13:24:00,76.4,64.6,29.95,WSW,252,1.0,1.0,67,0.00,,,0.00,283,Wunderground v.1.15,2013-11-15 19:24:00,
2013-11-15 13:29:00,76.6,64.4,29.94,SW,221,1.0,4.0,66,0.00,,,0.00,190,Wunderground v.1.15,2013-11-15 19:29:00,
2013-11-15 13:35:00,76.5,64.3,29.94,South,185,1.0,4.0,66,0.00,,,0.00,288,Wunderground v.1.15,2013-11-15 19:35:00,
2013-11-15 13:40:00,76.3,64.5,29.94,SE,126,0.0,0.0,67,0.00,,,0.00,181,Wunderground v.1.15,2013-11-15 19:40:00,
2013-11-15 13:45:00,75.9,65.0,29.93,SE,126,0.0,0.0,69,0.00,,,0.00,197,Wunderground v.1.15,2013-11-15 19:45:00,
2013-11-15 13:54:00,77.2,64.5,29.93,SSW,206,0.0,1.0,65,0.00,,,0.00,650,Wunderground v.1.15,2013-11-15 19:54:00,
2013-11-15 13:59:00,78.5,65.3,29.93,South,182,2.0,3.0,64,0.00,,,0.00,594,Wunderground v.1.15,2013-11-15 19:59:00,
2013-11-15 14:05:00,78.7,65.0,29.93,SSW,213,2.0,3.0,63,0.00,,,0.00,596,Wunderground v.1.15,2013-11-15 20:05:00,
2013-11-15 14:10:00,78.4,64.8,29.93,SSW,205,1.0,1.0,63,0.00,,,0.00,195,Wunderground v.1.15,2013-11-15 20:10:00,
2013-11-15 14:15:00,78.0,64.8,29.93,SSW,210,0.0,5.0,64,0.00,,,0.00,193,Wunderground v.1.15,2013-11-15 20:15:00,
2013-11-15 14:25:00,77.0,64.3,29.93,WNW,290,2.0,2.0,65,0.00,,,0.00,202,Wunderground v.1.15,2013-11-15 20:25:00,
2013-11-15 14:35:00,76.6,64.4,29.93,WNW,294,1.0,1.0,66,0.00,,,0.00,209,Wunderground v.1.15,2013-11-15 20:35:00,
2013-11-15 14:44:00,76.6,64.4,29.93,WSW,248,1.0,4.0,66,0.00,,,0.00,171,Wunderground v.1.15,2013-11-15 20:44:00,
2013-11-15 14:50:00,76.5,64.7,29.93,WSW,248,1.0,1.0,67,0.00,,,0.00,202,Wunderground v.1.15,2013-11-15 20:50:00,
2013-11-15 14:55:00,76.6,64.0,29.93,WSW,247,0.0,1.0,65,0.00,,,0.00,429,Wunderground v.1.15,2013-11-15 20:55:00,
2013-11-15 15:00:00,77.0,64.3,29.92,WSW,242,0.0,2.0,65,0.00,,,0.00,438,Wunderground v.1.15,2013-11-15 21:00:00,
2013-11-15 15:09:00,77.1,64.0,29.92,SSE,162,1.0,1.0,64,0.00,,,0.00,156,Wunderground v.1.15,2013-11-15 21:09:00,
2013-11-15 15:14:00,77.1,64.9,29.92,SSE,162,0.0,1.0,66,0.00,,,0.00,158,Wunderground v.1.15,2013-11-15 21:14:00,
2013-11-15 15:20:00,77.0,64.8,29.92,SSE,165,0.0,0.0,66,0.00,,,0.00,258,Wunderground v.1.15,2013-11-15 21:20:00,
2013-11-15 15:25:00,77.0,64.8,29.92,SSE,168,1.0,1.0,66,0.00,,,0.00,359,Wunderground v.1.15,2013-11-15 21:25:00,
2013-11-15 15:30:00,77.4,64.3,29.92,SSW,198,1.0,1.0,64,0.00,,,0.00,311,Wunderground v.1.15,2013-11-15 21:30:00,
2013-11-15 15:39:00,77.0,64.8,29.92,SSW,211,0.0,0.0,66,0.00,,,0.00,54,Wunderground v.1.15,2013-11-15 21:39:00,
2013-11-15 15:44:00,76.2,64.9,29.92,SSE,148,0.0,0.0,68,0.00,,,0.00,74,Wunderground v.1.15,2013-11-15 21:44:00,
2013-11-15 15:50:00,75.6,64.7,29.92,SE,142,1.0,2.0,69,0.00,,,0.00,239,Wunderground v.1.15,2013-11-15 21:50:00,
2013-11-15 15:55:00,75.5,64.6,29.92,SSE,154,0.0,2.0,69,0.00,,,0.00,209,Wunderground v.1.15,2013-11-15 21:55:00,
2013-11-15 16:00:00,75.6,65.5,29.92,SSE,155,0.0,2.0,71,0.00,,,0.00,127,Wunderground v.1.15,2013-11-15 22:00:00,
2013-11-15 16:10:00,75.2,65.1,29.92,SSE,164,0.0,0.0,71,0.00,,,0.00,63,Wunderground v.1.15,2013-11-15 22:10:00,
2013-11-15 16:20:00,74.7,65.1,29.92,SSE,163,0.0,0.0,72,0.00,,,0.00,56,Wunderground v.1.15,2013-11-15 22:20:00,
2013-11-15 16:25:00,74.5,64.9,29.92,SSE,164,0.0,0.0,72,0.00,,,0.00,74,Wunderground v.1.15,2013-11-15 22:25:00,
2013-11-15 16:30:00,74.3,64.7,29.92,SSE,163,0.0,0.0,72,0.00,,,0.00,62,Wunderground v.1.15,2013-11-15 22:30:00,
2013-11-15 16:40:00,73.9,64.7,29.91,SSE,162,0.0,0.0,73,0.00,,,0.00,30,Wunderground v.1.15,2013-11-15 22:40:00,
2013-11-15 16:45:00,73.4,64.6,29.92,SSE,161,1.0,1.0,74,0.00,,,0.00,23,Wunderground v.1.15,2013-11-15 22:45:00,
2013-11-15 16:54:00,72.4,64.0,29.92,SE,138,1.0,1.0,75,0.00,,,0.00,16,Wunderground v.1.15,2013-11-15 22:54:00,
2013-11-15 16:59:00,71.8,64.2,29.92,SE,141,0.0,0.0,77,0.00,,,0.00,12,Wunderground v.1.15,2013-11-15 22:59:00,
2013-11-15 17:05:00,71.3,63.7,29.92,SE,141,0.0,0.0,77,0.00,,,0.00,11,Wunderground v.1.15,2013-11-15 23:05:00,
2013-11-15 17:10:00,70.8,63.6,29.92,SE,141,0.0,0.0,78,0.00,,,0.00,7,Wunderground v.1.15,2013-11-15 23:10:00,
2013-11-15 17:15:00,70.3,63.5,29.92,SE,141,0.0,0.0,79,0.00,,,0.00,5,Wunderground v.1.15,2013-11-15 23:15:00,
2013-11-15 17:24:00,69.5,63.4,29.92,SSE,152,0.0,1.0,81,0.00,,,0.00,0,Wunderground v.1.15,2013-11-15 23:24:00,
2013-11-15 17:35:00,68.9,63.2,29.93,SSE,152,0.0,3.0,82,0.00,,,0.00,0,Wunderground v.1.15,2013-11-15 23:35:00,
2013-11-15 17:40:00,68.7,63.0,29.93,SSE,152,0.0,0.0,82,0.00,,,0.00,0,Wunderground v.1.15,2013-11-15 23:40:00,
2013-11-15 17:50:00,68.3,62.9,29.93,SSE,152,0.0,0.0,83,0.00,,,0.00,0,Wunderground v.1.15,2013-11-15 23:50:00,
2013-11-15 17:55:00,68.0,62.6,29.93,SSE,152,0.0,0.0,83,0.00,,,0.00,0,Wunderground v.1.15,2013-11-15 23:55:00,
2013-11-15 18:00:00,67.6,62.9,29.93,SSE,152,0.0,0.0,85,0.00,,,0.00,0,Wunderground v.1.15,2013-11-16 00:00:00,
2013-11-15 18:09:00,66.7,62.4,29.93,SSE,152,0.0,0.0,86,0.00,,,0.00,0,Wunderground v.1.15,2013-11-16 00:09:00,
2013-11-15 18:14:00,66.2,61.9,29.93,SSE,152,0.0,0.0,86,0.00,,,0.00,0,Wunderground v.1.15,2013-11-16 00:14:00,
2013-11-15 18:20:00,65.9,61.9,29.93,SSE,152,0.0,0.0,87,0.00,,,0.00,0,Wunderground v.1.15,2013-11-16 00:20:00,
2013-11-15 18:25:00,65.6,61.6,29.93,SSE,152,0.0,0.0,87,0.00,,,0.00,0,Wunderground v.1.15,2013-11-16 00:25:00,
2013-11-15 18:35:00,65.0,61.4,29.93,SSE,152,0.0,2.0,88,0.00,,,0.00,0,Wunderground v.1.15,2013-11-16 00:35:00,
2013-11-15 18:45:00,64.4,61.1,29.93,SSE,152,0.0,0.0,89,0.00,,,0.00,0,Wunderground v.1.15,2013-11-16 00:45:00,
2013-11-15 18:50:00,64.2,61.2,29.93,SSE,152,0.0,0.0,90,0.00,,,0.00,0,Wunderground v.1.15,2013-11-16 00:50:00,
2013-11-15 18:59:00,63.6,60.6,29.93,SSE,152,0.0,0.0,90,0.00,,,0.00,0,Wunderground v.1.15,2013-11-16 00:59:00,
2013-11-15 19:05:00,63.4,60.7,29.93,SSE,152,0.0,0.0,91,0.00,,,0.00,0,Wunderground v.1.15,2013-11-16 01:05:00,
2013-11-15 19:10:00,63.2,60.5,29.93,SSE,152,0.0,0.0,91,0.00,,,0.00,0,Wunderground v.1.15,2013-11-16 01:10:00,
2013-11-15 19:15:00,63.1,60.4,29.94,SSE,152,0.0,0.0,91,0.00,,,0.00,0,Wunderground v.1.15,2013-11-16 01:15:00,
2013-11-15 19:24:00,63.1,60.7,29.94,SSE,152,0.0,0.0,92,0.00,,,0.00,0,Wunderground v.1.15,2013-11-16 01:24:00,
2013-11-15 19:30:00,63.0,60.6,29.94,SSE,152,0.0,0.0,92,0.00,,,0.00,0,Wunderground v.1.15,2013-11-16 01:30:00,
2013-11-15 19:35:00,62.9,60.5,29.94,SSE,152,0.0,0.0,92,0.00,,,0.00,0,Wunderground v.1.15,2013-11-16 01:35:00,
2013-11-15 19:44:00,62.7,60.3,29.94,SSE,152,0.0,0.0,92,0.00,,,0.00,0,Wunderground v.1.15,2013-11-16 01:44:00,
2013-11-15 19:50:00,62.5,60.1,29.94,SSE,152,0.0,0.0,92,0.00,,,0.00,0,Wunderground v.1.15,2013-11-16 01:50:00,
2013-11-15 20:00:00,62.2,59.8,29.94,SSE,152,0.0,0.0,92,0.00,,,0.00,0,Wunderground v.1.15,2013-11-16 02:00:00,
2013-11-15 20:09:00,62.0,59.6,29.95,SSE,152,0.0,0.0,92,0.00,,,0.00,0,Wunderground v.1.15,2013-11-16 02:09:00,
2013-11-15 20:14:00,61.8,59.8,29.95,SSE,155,0.0,0.0,93,0.00,,,0.00,0,Wunderground v.1.15,2013-11-16 02:14:00,
2013-11-15 20:20:00,61.7,59.7,29.95,SSE,155,0.0,0.0,93,0.00,,,0.00,0,Wunderground v.1.15,2013-11-16 02:20:00,
2013-11-15 20:25:00,61.6,59.6,29.95,SSE,155,0.0,0.0,93,0.00,,,0.00,0,Wunderground v.1.15,2013-11-16 02:25:00,
2013-11-15 20:34:00,61.2,59.2,29.96,SSE,155,0.0,0.0,93,0.00,,,0.00,0,Wunderground v.1.15,2013-11-16 02:34:00,
2013-11-15 20:39:00,61.0,59.0,29.96,SSE,155,0.0,0.0,93,0.00,,,0.00,0,Wunderground v.1.15,2013-11-16 02:39:00,
2013-11-15 20:45:00,60.8,58.8,29.96,SSE,155,0.0,0.0,93,0.00,,,0.00,0,Wunderground v.1.15,2013-11-16 02:45:00,
2013-11-15 20:54:00,60.4,58.4,29.96,SSE,155,0.0,0.0,93,0.00,,,0.00,0,Wunderground v.1.15,2013-11-16 02:54:00,
2013-11-15 21:00:00,60.3,58.3,29.96,SSE,155,0.0,0.0,93,0.00,,,0.00,0,Wunderground v.1.15,2013-11-16 03:00:00,
2013-11-15 21:05:00,60.1,58.1,29.96,SSE,155,0.0,0.0,93,0.00,,,0.00,0,Wunderground v.1.15,2013-11-16 03:05:00,
2013-11-15 21:10:00,60.0,58.0,29.96,SSE,155,0.0,0.0,93,0.00,,,0.00,0,Wunderground v.1.15,2013-11-16 03:10:00,
2013-11-15 21:15:00,59.9,57.9,29.96,SSE,155,0.0,0.0,93,0.00,,,0.00,0,Wunderground v.1.15,2013-11-16 03:15:00,
2013-11-15 21:24:00,59.8,57.8,29.96,SSE,155,0.0,0.0,93,0.00,,,0.00,0,Wunderground v.1.15,2013-11-16 03:24:00,
2013-11-15 21:30:00,59.8,57.8,29.97,SSE,155,0.0,0.0,93,0.00,,,0.00,0,Wunderground v.1.15,2013-11-16 03:30:00,
2013-11-15 21:35:00,59.8,57.8,29.97,SSE,155,0.0,0.0,93,0.00,,,0.00,0,Wunderground v.1.15,2013-11-16 03:35:00,
2013-11-15 21:45:00,59.6,57.6,29.97,SSE,155,0.0,0.0,93,0.00,,,0.00,0,Wunderground v.1.15,2013-11-16 03:45:00,
2013-11-15 21:54:00,59.3,57.3,29.97,SSE,155,0.0,0.0,93,0.00,,,0.00,0,Wunderground v.1.15,2013-11-16 03:54:00,
2013-11-15 22:00:00,59.1,57.1,29.97,SSE,155,0.0,0.0,93,0.00,,,0.00,0,Wunderground v.1.15,2013-11-16 04:00:00,
2013-11-15 22:05:00,59.0,57.0,29.97,SSE,155,0.0,0.0,93,0.00,,,0.00,0,Wunderground v.1.15,2013-11-16 04:05:00,
2013-11-15 22:10:00,58.8,56.8,29.97,SSE,155,0.0,0.0,93,0.00,,,0.00,0,Wunderground v.1.15,2013-11-16 04:10:00,
2013-11-15 22:19:00,58.5,56.8,29.97,SSE,155,0.0,0.0,94,0.00,,,0.00,0,Wunderground v.1.15,2013-11-16 04:19:00,
2013-11-15 22:24:00,58.3,56.3,29.97,SSE,155,0.0,0.0,93,0.00,,,0.00,0,Wunderground v.1.15,2013-11-16 04:24:00,
2013-11-15 22:30:00,58.1,56.1,29.97,SSE,155,0.0,0.0,93,0.00,,,0.00,0,Wunderground v.1.15,2013-11-16 04:30:00,
2013-11-15 22:35:00,58.0,56.3,29.97,SSE,155,0.0,0.0,94,0.00,,,0.00,0,Wunderground v.1.15,2013-11-16 04:35:00,
2013-11-15 22:44:00,57.7,55.7,29.97,SSE,155,0.0,0.0,93,0.00,,,0.00,0,Wunderground v.1.15,2013-11-16 04:44:00,
2013-11-15 22:50:00,57.7,55.7,29.97,SSE,155,0.0,0.0,93,0.00,,,0.00,0,Wunderground v.1.15,2013-11-16 04:50:00,
2013-11-15 23:00:00,57.3,55.6,29.97,SSE,155,0.0,0.0,94,0.00,,,0.00,0,Wunderground v.1.15,2013-11-16 05:00:00,
2013-11-15 23:04:00,57.2,55.2,29.97,SSE,155,0.0,0.0,93,0.00,,,0.00,0,Wunderground v.1.15,2013-11-16 05:04:00,
2013-11-15 23:10:00,57.0,55.0,29.97,SSE,155,0.0,0.0,93,0.00,,,0.00,0,Wunderground v.1.15,2013-11-16 05:10:00,
2013-11-15 23:15:00,56.9,55.2,29.97,SSE,155,0.0,0.0,94,0.00,,,0.00,0,Wunderground v.1.15,2013-11-16 05:15:00,
2013-11-15 23:19:00,56.8,55.1,29.97,SSE,155,0.0,0.0,94,0.00,,,0.00,0,Wunderground v.1.15,2013-11-16 05:19:00,
2013-11-15 23:24:00,56.6,54.6,29.97,SSE,155,0.0,0.0,93,0.00,,,0.00,0,Wunderground v.1.15,2013-11-16 05:24:00,
2013-11-15 23:30:00,56.4,54.4,29.97,SSE,155,0.0,0.0,93,0.00,,,0.00,0,Wunderground v.1.15,2013-11-16 05:30:00,
2013-11-15 23:35:00,56.3,54.6,29.96,SSE,155,0.0,0.0,94,0.00,,,0.00,0,Wunderground v.1.15,2013-11-16 05:35:00,
2013-11-15 23:40:00,56.2,54.5,29.96,SSE,155,0.0,0.0,94,0.00,,,0.00,0,Wunderground v.1.15,2013-11-16 05:40:00,
2013-11-15 23:50:00,55.8,54.1,29.96,SSE,155,0.0,0.0,94,0.00,,,0.00,0,Wunderground v.1.15,2013-11-16 05:50:00,
2013-11-15 23:55:00,55.8,54.1,29.96,SSE,155,0.0,0.0,94,0.00,,,0.00,0,Wunderground v.1.15,2013-11-16 05:55:00,
2013-11-15 23:59:00,55.6,53.9,29.96,SSE,155,0.0,0.0,94,0.00,,,0.00,0,Wunderground v.1.15,2013-11-16 05:59:00,